Tuesday, June 30, 2015, 3:39 PM EDT

KMUI, Muir Army Air Field / Indiantown

Location: Jonestown, PA, United States Lat: 40.433
Local Time: 3:39 PM EDT (19:39 GMT) Lon: -76.567
Time Zone: US/Eastern Elev: 488 ft

Show me the last for .
Show Decoded

2015-06-30 14:58 METAR KMUI 301858Z AUTO 28005KT 10SM FEW035 27/20 A2983 RMK AO2 SLP101 T02690203
                 $ =
2015-06-30 13:58 METAR KMUI 301758Z AUTO 22012KT 10SM FEW032 SCT170 SCT200 27/19 A2984 RMK AO2
                 SLP105 60000 T02730194 10273 20186 57022 $ =
2015-06-30 12:58 METAR KMUI 301658Z AUTO VRB04KT 10SM SCT026 BKN035 BKN110 BKN190 24/21 A2988 RMK
                 AO2 SLP119 T02410205 $ =
2015-06-30 12:24 METAR KMUI 301624Z AUTO 04003KT 10SM FEW017 SCT023 23/21 A2989 RMK AO2 $ =
2015-06-30 12:12 METAR KMUI 301612Z AUTO VRB02KT 10SM SCT018 SCT022 BKN029 BKN200 23/20 A2989 RMK
                 AO2 CIG 018V200 $ =
2015-06-30 12:08 METAR KMUI 301608Z AUTO VRB03KT 10SM FEW015 SCT020 SCT027 BKN100 BKN200 23/20
                 A2989 RMK AO2 $ =
2015-06-30 12:06 METAR KMUI 301606Z AUTO VRB03KT 10SM SCT018 BKN025 23/20 A2989 RMK AO2 CIG
                 018V025 $ =
2015-06-30 12:04 METAR KMUI 301604Z AUTO 03004KT 10SM BKN018 BKN025 23/20 A2989 RMK AO2 $ =
2015-06-30 11:58 METAR KMUI 301558Z AUTO 35005KT 10SM SCT015 BKN021 BKN026 23/20 A2989 RMK AO2
                 SLP122 T02290201 $ =
2015-06-30 11:48 METAR KMUI 301548Z AUTO VRB04KT 10SM SCT013 BKN021 23/20 A2990 RMK AO2 CIG
                 012V021 $ =
2015-06-30 11:44 METAR KMUI 301544Z AUTO 04005KT 10SM SCT013 BKN019 22/20 A2990 RMK AO2 CIG
                 012V019 $ =
2015-06-30 11:00 METAR KMUI 301500Z AUTO 03003KT 10SM OVC010 20/19 A2991 RMK AO2 $ =
2015-06-30 10:58 METAR KMUI 301458Z AUTO VRB04KT 10SM OVC009 20/19 A2991 RMK AO2 RAE07 SLP129
                 P0000 60000 T02030186 58006 $ =
2015-06-30 10:16 METAR KMUI 301416Z AUTO VRB02KT 10SM OVC009 20/18 A2991 RMK AO2 RAE07 $ =
2015-06-30 10:07 METAR KMUI 301407Z AUTO VRB05KT 10SM OVC010 20/18 A2992 RMK AO2 RAE07 $ =
2015-06-30 09:40 METAR KMUI 301340Z AUTO VRB02KT 10SM -RA OVC010 20/18 A2992 RMK AO2 RAB36 $ =
2015-06-30 09:36 METAR KMUI 301336Z AUTO 05003KT 10SM -RA OVC009 19/18 A2992 RMK AO2 RAB36 $ =
2015-06-30 09:32 METAR KMUI 301332Z AUTO 07005KT 10SM OVC009 19/18 A2991 RMK AO2 $ =
2015-06-30 08:58 METAR KMUI 301258Z AUTO 03002KT 10SM OVC010 19/18 A2993 RMK AO2 SLP136 T01890176
                 $ =
2015-06-30 07:58 METAR KMUI 301158Z AUTO VRB02KT 10SM OVC012 19/17 A2992 RMK AO2 RAB23E40DZB40E49
                 SLP132 P0001 60001 70001 T01860172 10190 20162 52003 $ =
2015-06-30 07:49 METAR KMUI 301149Z AUTO 03002KT 10SM OVC012 19/17 A2992 RMK AO2 RAB23E40DZB40E49
                 $ =
2015-06-30 07:23 METAR KMUI 301123Z AUTO 05003KT 10SM -RA OVC013 19/17 A2992 RMK AO2 RAB23 $ =
2015-06-30 07:04 METAR KMUI 301104Z AUTO 06001KT 10SM OVC014 19/16 A2992 RMK AO2 $ =
2015-06-30 06:58 METAR KMUI 301058Z AUTO 05003KT 10SM OVC015 19/16 A2992 RMK AO2 SLP132 T01880163
                 $ =
2015-06-30 06:08 METAR KMUI 301008Z AUTO 03002KT 10SM BKN019 BKN049 BKN065 18/16 A2992 RMK AO2
                 CIG 019V065 BKN019 V SCT $ =
2015-06-30 05:58 METAR KMUI 300958Z AUTO 04002KT 10SM FEW021 SCT050 BKN065 BKN130 18/16 A2992 RMK
                 AO2 SLP132 T01820159 $ =
2015-06-30 04:58 METAR KMUI 300858Z AUTO 03003KT 10SM BKN065 BKN140 18/16 A2992 RMK AO2 SLP132
                 T01790155 56006 $ =
2015-06-30 02:58 METAR KMUI 300658Z AUTO 05003KT 10SM FEW065 SCT080 BKN100 17/16 A2992 RMK AO2
                 SLP132 T01690156 $ =
2015-06-30 01:58 METAR KMUI 300558Z AUTO 06003KT 10SM BKN100 16/15 A2994 RMK AO2 SLP139 T01620154
                 10232 20160 58001 $ =
2015-06-30 00:58 METAR KMUI 300458Z AUTO 00000KT 10SM BKN100 17/16 A2994 RMK AO2 SLP139 T01700155
                 402630137 $ =
2015-06-29 23:58 METAR KMUI 300358Z AUTO 10002KT 10SM FEW095 OVC120 17/15 A2994 RMK AO2 SLP139
                 T01720151 $ =
2015-06-29 22:58 METAR KMUI 300258Z AUTO 03002KT 10SM OVC120 18/16 A2994 RMK AO2 SLP139 T01810156
                 51009 $ =
2015-06-29 21:58 METAR KMUI 300158Z AUTO 36002KT 10SM BKN120 19/16 A2994 RMK AO2 SLP139 T01910160
                 $ =
2015-06-29 19:58 METAR KMUI 292358Z AUTO 22004KT 10SM FEW150 23/15 A2991 RMK AO2 SLP129 T02330153
                 10263 20233 55000 $ =
2015-06-29 18:58 METAR KMUI 292258Z AUTO 20005KT 10SM CLR 25/16 A2991 RMK AO2 SLP129 T02490155 $
                 =
2015-06-29 17:58 METAR KMUI 292158Z AUTO VRB06KT 10SM FEW050 26/15 A2991 RMK AO2 SLP129 T02590150
                 $ =
2015-06-29 16:58 METAR KMUI 292058Z AUTO 24008KT 10SM FEW060 26/14 A2991 RMK AO2 SLP129 T02600144
                 58008 $ =

Support USWX by starting your Amazon purchase here.